Aviation Digital Data Service (ADDS)

Output produced by METARs form (2041 UTC 31 October 2014)
found at http://www.aviationweather.gov/adds/metars/
 
METAR text: KSBP 311956Z 18007KT 10SM SCT028 BKN046 19/12 A2988 RMK AO2 SLP116 T01940117
Conditions at: KSBP (SAN LUIS OBISPO , CA, US) observed 1956 UTC 31 October 2014
Temperature: 19.4°C (67°F)
Dewpoint: 11.7°C (53°F) [RH = 61%]
Pressure (altimeter): 29.88 inches Hg (1011.9 mb)
[Sea-level pressure: 1011.6 mb]
Winds: from the S (180 degrees) at 8 MPH (7 knots; 3.6 m/s)
Visibility: 10 or more miles (16+ km)
Ceiling: 4600 feet AGL
Clouds: scattered clouds at 2800 feet AGL
broken clouds at 4600 feet AGL
Weather: no significant weather observed at this time

METAR text: KSBP 311856Z 17008KT 10SM SCT028 BKN035 BKN046 20/12 A2991 RMK AO2 SLP126 T02000117
Conditions at: KSBP (SAN LUIS OBISPO , CA, US) observed 1856 UTC 31 October 2014
Temperature: 20.0°C (68°F)
Dewpoint: 11.7°C (53°F) [RH = 59%]
Pressure (altimeter): 29.91 inches Hg (1013.0 mb)
[Sea-level pressure: 1012.6 mb]
Winds: from the S (170 degrees) at 9 MPH (8 knots; 4.2 m/s)
Visibility: 10 or more miles (16+ km)
Ceiling: 3500 feet AGL
Clouds: scattered clouds at 2800 feet AGL
broken clouds at 3500 feet AGL
broken clouds at 4600 feet AGL
Weather: no significant weather observed at this time

METAR text: KSBP 311756Z 15008KT 10SM SCT018 BKN023 19/12 A2994 RMK AO2 SLP137 T01890122 10189 20161 50002
Conditions at: KSBP (SAN LUIS OBISPO , CA, US) observed 1756 UTC 31 October 2014
Temperature: 18.9°C (66°F)
Dewpoint: 12.2°C (54°F) [RH = 65%]
Pressure (altimeter): 29.94 inches Hg (1014.0 mb)
[Sea-level pressure: 1013.7 mb]
Winds: from the SSE (150 degrees) at 9 MPH (8 knots; 4.2 m/s)
Visibility: 10 or more miles (16+ km)
Ceiling: 2300 feet AGL
Clouds: scattered clouds at 1800 feet AGL
broken clouds at 2300 feet AGL
Weather: no significant weather observed at this time

METAR text: KSBP 311702Z 20005KT 10SM SCT018 BKN023 17/13 A2996 RMK AO2 T01720128
Conditions at: KSBP (SAN LUIS OBISPO , CA, US) observed 1702 UTC 31 October 2014
Temperature: 17.2°C (63°F)
Dewpoint: 12.8°C (55°F) [RH = 75%]
Pressure (altimeter): 29.96 inches Hg (1014.6 mb)
Winds: from the SSW (200 degrees) at 6 MPH (5 knots; 2.6 m/s)
Visibility: 10 or more miles (16+ km)
Ceiling: 2300 feet AGL
Clouds: scattered clouds at 1800 feet AGL
broken clouds at 2300 feet AGL
Weather: no significant weather observed at this time

METAR text: KSBP 311656Z 21006KT 10SM SCT037 BKN046 17/13 A2996 RMK AO2 SLP145 T01720133
Conditions at: KSBP (SAN LUIS OBISPO , CA, US) observed 1656 UTC 31 October 2014
Temperature: 17.2°C (63°F)
Dewpoint: 13.3°C (56°F) [RH = 78%]
Pressure (altimeter): 29.96 inches Hg (1014.6 mb)
[Sea-level pressure: 1014.5 mb]
Winds: from the SSW (210 degrees) at 7 MPH (6 knots; 3.1 m/s)
Visibility: 10 or more miles (16+ km)
Ceiling: 4600 feet AGL
Clouds: scattered clouds at 3700 feet AGL
broken clouds at 4600 feet AGL
Weather: no significant weather observed at this time

METAR text: KSBP 311614Z 21006KT 10SM SCT037 BKN046 17/13 A2996 RMK AO2 T01720133
Conditions at: KSBP (SAN LUIS OBISPO , CA, US) observed 1614 UTC 31 October 2014
Temperature: 17.2°C (63°F)
Dewpoint: 13.3°C (56°F) [RH = 78%]
Pressure (altimeter): 29.96 inches Hg (1014.6 mb)
Winds: from the SSW (210 degrees) at 7 MPH (6 knots; 3.1 m/s)
Visibility: 10 or more miles (16+ km)
Ceiling: 4600 feet AGL
Clouds: scattered clouds at 3700 feet AGL
broken clouds at 4600 feet AGL
Weather: no significant weather observed at this time

METAR text: KSBP 311556Z 17007KT 10SM SCT034 BKN046 17/13 A2995 RMK AO2 SLP140 T01720133
Conditions at: KSBP (SAN LUIS OBISPO , CA, US) observed 1556 UTC 31 October 2014
Temperature: 17.2°C (63°F)
Dewpoint: 13.3°C (56°F) [RH = 78%]
Pressure (altimeter): 29.95 inches Hg (1014.3 mb)
[Sea-level pressure: 1014.0 mb]
Winds: from the S (170 degrees) at 8 MPH (7 knots; 3.6 m/s)
Visibility: 10 or more miles (16+ km)
Ceiling: 4600 feet AGL
Clouds: scattered clouds at 3400 feet AGL
broken clouds at 4600 feet AGL
Weather: no significant weather observed at this time

METAR text: KSBP 311507Z COR 12008KT 10SM SCT027 BKN037 17/14 A2993 RMK AO2 T01670139
Conditions at: KSBP (SAN LUIS OBISPO , CA, US) observed 1507 UTC 31 October 2014
Temperature: 16.7°C (62°F)
Dewpoint: 13.9°C (57°F) [RH = 84%]
Pressure (altimeter): 29.93 inches Hg (1013.6 mb)
Winds: from the ESE (120 degrees) at 9 MPH (8 knots; 4.2 m/s)
Visibility: 10 or more miles (16+ km)
Ceiling: 3700 feet AGL
Clouds: scattered clouds at 2700 feet AGL
broken clouds at 3700 feet AGL
Weather: no significant weather observed at this time

METAR text: KSBP 311456Z VRB04KT 10SM SCT027 BKN037 16/14 A2994 RMK AO2 SLP135 T01610139 53005
Conditions at: KSBP (SAN LUIS OBISPO , CA, US) observed 1456 UTC 31 October 2014
Temperature: 16.1°C (61°F)
Dewpoint: 13.9°C (57°F) [RH = 87%]
Pressure (altimeter): 29.94 inches Hg (1014.0 mb)
[Sea-level pressure: 1013.5 mb]
Winds: variable direction winds at 5 MPH (4 knots; 2.1 m/s)
Visibility: 10 or more miles (16+ km)
Ceiling: 3700 feet AGL
Clouds: scattered clouds at 2700 feet AGL
broken clouds at 3700 feet AGL
Weather: no significant weather observed at this time

METAR text: KSBP 311356Z 00000KT 10SM BKN025 OVC040 16/14 A2993 RMK AO2 SLP133 T01610139
Conditions at: KSBP (SAN LUIS OBISPO , CA, US) observed 1356 UTC 31 October 2014
Temperature: 16.1°C (61°F)
Dewpoint: 13.9°C (57°F) [RH = 87%]
Pressure (altimeter): 29.93 inches Hg (1013.6 mb)
[Sea-level pressure: 1013.3 mb]
Winds: calm
Visibility: 10 or more miles (16+ km)
Ceiling: 2500 feet AGL
Clouds: broken clouds at 2500 feet AGL
overcast cloud deck at 4000 feet AGL
Weather: no significant weather observed at this time

METAR text: KSBP 311256Z VRB03KT 10SM FEW022 OVC039 16/14 A2992 RMK AO2 SLP131 T01610139
Conditions at: KSBP (SAN LUIS OBISPO , CA, US) observed 1256 UTC 31 October 2014
Temperature: 16.1°C (61°F)
Dewpoint: 13.9°C (57°F) [RH = 87%]
Pressure (altimeter): 29.92 inches Hg (1013.3 mb)
[Sea-level pressure: 1013.1 mb]
Winds: variable direction winds at 3 MPH (3 knots; 1.6 m/s)
Visibility: 10 or more miles (16+ km)
Ceiling: 3900 feet AGL
Clouds: few clouds at 2200 feet AGL
overcast cloud deck at 3900 feet AGL
Weather: no significant weather observed at this time